createdAt,value
2022-08-20T00:00:23.509Z,24.27
2022-08-20T00:03:41.669Z,24.25
2022-08-20T00:06:48.815Z,24.24
2022-08-20T00:09:51.801Z,24.22
2022-08-20T00:12:55.690Z,24.22
2022-08-20T00:15:59.608Z,24.20
2022-08-20T00:19:07.313Z,24.19
2022-08-20T00:22:10.219Z,24.18
2022-08-20T00:25:14.008Z,24.16
2022-08-20T00:28:17.446Z,24.15
2022-08-20T00:31:22.950Z,24.13
2022-08-20T00:34:25.964Z,24.11
2022-08-20T00:37:28.901Z,24.10
2022-08-20T00:40:45.701Z,24.08
2022-08-20T00:44:05.001Z,24.04
2022-08-20T00:47:09.300Z,24.02
2022-08-20T00:50:15.531Z,24.02
2022-08-20T00:53:23.590Z,24.00
2022-08-20T00:56:26.746Z,23.99
2022-08-20T00:59:31.490Z,23.98
2022-08-20T01:02:35.270Z,23.97
2022-08-20T01:05:40.151Z,23.96
2022-08-20T01:08:43.208Z,23.94
2022-08-20T01:11:46.485Z,23.93
2022-08-20T01:14:49.702Z,23.94
2022-08-20T01:17:57.962Z,23.93
2022-08-20T01:21:06.025Z,23.92
2022-08-20T01:24:16.670Z,23.91
2022-08-20T01:27:19.883Z,23.91
2022-08-20T01:30:26.351Z,23.91
2022-08-20T01:33:29.460Z,23.90
2022-08-20T01:36:43.034Z,23.90
2022-08-20T01:39:48.539Z,23.89
2022-08-20T01:42:58.980Z,23.89
2022-08-20T01:46:04.651Z,23.87
2022-08-20T01:49:15.667Z,23.86
2022-08-20T01:52:36.636Z,23.86
2022-08-20T01:55:39.653Z,23.84
2022-08-20T01:58:49.745Z,23.83
2022-08-20T02:02:00.234Z,23.81
2022-08-20T02:05:04.658Z,23.80
2022-08-20T02:08:07.664Z,23.79
2022-08-20T02:11:12.958Z,23.78
2022-08-20T02:14:16.792Z,23.77
2022-08-20T02:17:22.928Z,23.76
2022-08-20T02:20:30.360Z,23.75
2022-08-20T02:23:35.819Z,23.73
2022-08-20T02:26:39.745Z,23.71
2022-08-20T02:29:42.746Z,23.70
2022-08-20T02:32:45.766Z,23.69
2022-08-20T02:35:49.906Z,23.67
2022-08-20T02:38:52.963Z,23.65
2022-08-20T02:41:56.072Z,23.64
2022-08-20T02:44:59.016Z,23.64
2022-08-20T02:48:01.948Z,23.63
2022-08-20T02:51:06.929Z,23.62
2022-08-20T02:54:10.262Z,23.59
2022-08-20T02:57:15.117Z,23.57
2022-08-20T03:00:20.929Z,23.57
2022-08-20T03:03:24.545Z,23.56
2022-08-20T03:06:28.087Z,23.55
2022-08-20T03:09:31.019Z,23.54
2022-08-20T03:12:34.339Z,23.53
2022-08-20T03:15:37.500Z,23.53
2022-08-20T03:18:44.432Z,23.53
2022-08-20T03:21:47.741Z,23.52
2022-08-20T03:24:50.661Z,23.52
2022-08-20T03:27:57.500Z,23.51
2022-08-20T03:31:01.413Z,23.50
2022-08-20T03:34:04.518Z,23.48
2022-08-20T03:37:07.510Z,23.47
2022-08-20T03:40:15.583Z,23.45
2022-08-20T03:43:18.838Z,23.43
2022-08-20T03:46:23.076Z,23.43
2022-08-20T03:49:26.824Z,23.42
2022-08-20T03:52:29.842Z,23.42
2022-08-20T03:55:32.975Z,23.41
2022-08-20T03:58:36.625Z,23.41
2022-08-20T04:01:46.364Z,23.42
2022-08-20T04:04:49.663Z,23.42
2022-08-20T04:07:52.751Z,23.44
2022-08-20T04:10:57.819Z,23.44
2022-08-20T04:14:00.672Z,23.43
2022-08-20T04:17:10.676Z,23.44
2022-08-20T04:20:19.229Z,23.45
2022-08-20T04:23:22.568Z,23.46
2022-08-20T04:26:25.944Z,23.48
2022-08-20T04:29:32.490Z,23.50
2022-08-20T04:32:37.005Z,23.51
2022-08-20T04:35:41.259Z,23.52
2022-08-20T04:38:47.807Z,23.53
2022-08-20T04:41:53.155Z,23.53
2022-08-20T04:44:56.013Z,23.55
2022-08-20T04:48:05.741Z,23.58
2022-08-20T04:51:09.732Z,23.58
2022-08-20T04:54:14.348Z,23.60
2022-08-20T04:57:17.295Z,23.61
2022-08-20T05:00:20.292Z,23.60
2022-08-20T05:03:24.880Z,23.62
2022-08-20T05:06:31.146Z,23.62
2022-08-20T05:09:35.078Z,23.63
2022-08-20T05:12:56.829Z,23.63
2022-08-20T05:16:02.066Z,23.63
2022-08-20T05:19:07.018Z,23.64
2022-08-20T05:22:09.958Z,23.66
2022-08-20T05:25:13.038Z,23.67
2022-08-20T05:28:23.168Z,23.69
2022-08-20T05:31:31.375Z,23.72
2022-08-20T05:34:37.070Z,23.76
2022-08-20T05:37:43.761Z,23.78
2022-08-20T05:40:48.022Z,23.83
2022-08-20T05:43:51.537Z,23.88
2022-08-20T05:46:54.690Z,23.93
2022-08-20T05:49:57.953Z,23.98
2022-08-20T05:53:02.013Z,24.01
2022-08-20T05:56:05.114Z,24.06
2022-08-20T05:59:09.654Z,24.08
2022-08-20T06:02:30.985Z,24.08
2022-08-20T06:05:34.715Z,24.09
2022-08-20T06:08:37.915Z,24.12
2022-08-20T06:11:40.802Z,24.14
2022-08-20T06:14:47.373Z,24.17
2022-08-20T06:17:55.105Z,24.18
2022-08-20T06:21:01.515Z,24.20
2022-08-20T06:24:04.907Z,24.21
2022-08-20T06:27:07.941Z,24.21
2022-08-20T06:30:13.717Z,24.21
2022-08-20T06:33:16.692Z,24.23
2022-08-20T06:36:20.082Z,24.23
2022-08-20T06:39:24.552Z,24.23
2022-08-20T06:42:27.501Z,24.25
2022-08-20T06:45:32.923Z,24.23
2022-08-20T06:48:36.053Z,24.22
2022-08-20T06:51:41.337Z,24.23
2022-08-20T06:54:45.912Z,24.24
2022-08-20T06:57:59.956Z,24.26
2022-08-20T07:01:09.488Z,24.29
2022-08-20T07:04:13.748Z,24.32
2022-08-20T07:07:20.622Z,24.34
2022-08-20T07:10:25.278Z,24.40
2022-08-20T07:13:29.308Z,24.47
2022-08-20T07:16:32.392Z,24.58
2022-08-20T07:19:38.443Z,24.66
2022-08-20T07:22:43.589Z,24.78
2022-08-20T07:25:46.595Z,24.89
2022-08-20T07:28:49.574Z,25.01
2022-08-20T07:32:10.854Z,25.12
2022-08-20T07:35:18.109Z,25.23
2022-08-20T07:38:25.326Z,25.29
2022-08-20T07:41:28.551Z,25.30
2022-08-20T07:44:31.497Z,25.32
2022-08-20T07:47:35.895Z,25.31
2022-08-20T07:50:43.011Z,25.31
2022-08-20T07:53:47.732Z,25.31
2022-08-20T07:56:50.655Z,25.31
2022-08-20T07:59:53.584Z,25.31
2022-08-20T08:02:56.566Z,25.32
2022-08-20T08:06:00.442Z,25.33
2022-08-20T08:09:10.071Z,25.35
2022-08-20T08:12:15.063Z,25.37
2022-08-20T08:15:23.994Z,25.42
2022-08-20T08:18:31.989Z,25.52
2022-08-20T08:21:35.042Z,25.60
2022-08-20T08:24:39.480Z,25.63
2022-08-20T08:27:43.112Z,25.69
2022-08-20T08:30:48.212Z,25.79
2022-08-20T08:33:51.466Z,25.89
2022-08-20T08:36:54.384Z,26.06
2022-08-20T08:39:59.470Z,26.15
2022-08-20T08:43:04.395Z,26.25
2022-08-20T08:46:11.342Z,26.43
2022-08-20T08:49:18.402Z,26.53
2022-08-20T08:52:26.273Z,26.52
2022-08-20T08:55:31.210Z,26.48
2022-08-20T08:58:37.154Z,26.47
2022-08-20T09:01:54.324Z,26.49
2022-08-20T09:05:02.267Z,26.48
2022-08-20T09:08:14.966Z,26.51
2022-08-20T09:11:22.517Z,26.49
2022-08-20T09:14:25.548Z,26.47
2022-08-20T09:17:28.565Z,26.49
2022-08-20T09:20:31.546Z,26.53
2022-08-20T09:23:34.670Z,26.50
2022-08-20T09:26:39.283Z,26.44
2022-08-20T09:29:42.682Z,26.36
2022-08-20T09:32:46.631Z,26.29
2022-08-20T09:35:49.655Z,26.27
2022-08-20T09:38:52.574Z,26.27
2022-08-20T09:41:55.442Z,26.26
2022-08-20T09:45:06.326Z,26.25
2022-08-20T09:48:14.072Z,26.22
2022-08-20T09:51:17.484Z,26.18
2022-08-20T09:54:23.025Z,26.15
2022-08-20T09:57:26.606Z,26.20
2022-08-20T10:00:29.790Z,26.31
2022-08-20T10:03:32.751Z,26.43
2022-08-20T10:06:40.769Z,26.51
2022-08-20T10:09:43.917Z,26.56
2022-08-20T10:12:48.129Z,26.59
2022-08-20T10:16:13.441Z,26.62
2022-08-20T10:19:16.583Z,26.61
2022-08-20T10:22:19.508Z,26.59
2022-08-20T10:25:23.107Z,26.55
2022-08-20T10:28:26.026Z,26.51
2022-08-20T10:31:28.992Z,26.46
2022-08-20T10:34:32.083Z,26.42
2022-08-20T10:37:36.478Z,26.37
2022-08-20T10:40:39.592Z,26.34
2022-08-20T10:43:42.614Z,26.31
2022-08-20T10:46:45.866Z,26.29
2022-08-20T10:49:53.850Z,26.30
2022-08-20T10:52:56.865Z,26.35
2022-08-20T10:56:00.016Z,26.48
2022-08-20T10:59:03.540Z,26.61
2022-08-20T11:02:06.575Z,26.68
2022-08-20T11:05:09.955Z,26.70
2022-08-20T11:08:13.296Z,26.68
2022-08-20T11:11:16.208Z,26.64
2022-08-20T11:14:19.184Z,26.63
2022-08-20T11:17:28.854Z,26.62
2022-08-20T11:20:32.220Z,26.64
2022-08-20T11:23:35.406Z,26.66
2022-08-20T11:26:38.424Z,26.67
2022-08-20T11:29:41.295Z,26.69
2022-08-20T11:32:46.543Z,26.68
2022-08-20T11:35:50.275Z,26.68
2022-08-20T11:38:53.714Z,26.67
2022-08-20T11:41:56.782Z,26.68
2022-08-20T11:44:59.722Z,26.67
2022-08-20T11:48:02.788Z,26.64
2022-08-20T11:51:05.931Z,26.60
2022-08-20T11:54:08.892Z,26.55
2022-08-20T11:57:23.382Z,26.46
2022-08-20T12:00:32.199Z,26.38
2022-08-20T12:03:37.327Z,26.28
2022-08-20T12:06:40.293Z,26.19
2022-08-20T12:09:51.170Z,26.09
2022-08-20T12:12:55.335Z,25.99
2022-08-20T12:15:58.922Z,25.90
2022-08-20T12:19:01.878Z,25.82
2022-08-20T12:22:21.341Z,25.72
2022-08-20T12:25:27.980Z,25.64
2022-08-20T12:28:31.428Z,25.56
2022-08-20T12:31:34.457Z,25.49
2022-08-20T12:34:39.076Z,25.44
2022-08-20T12:37:43.185Z,25.38
2022-08-20T12:40:46.638Z,25.34
2022-08-20T12:43:49.519Z,25.29
2022-08-20T12:46:52.399Z,25.24
2022-08-20T12:50:05.554Z,25.18
2022-08-20T12:53:09.316Z,25.12
2022-08-20T12:56:12.158Z,25.06
2022-08-20T12:59:15.377Z,25.03
2022-08-20T13:02:18.854Z,24.98
2022-08-20T13:05:23.288Z,24.92
2022-08-20T13:08:26.266Z,24.89
2022-08-20T13:11:29.719Z,24.85
2022-08-20T13:14:32.676Z,24.82
2022-08-20T13:17:38.952Z,24.79
2022-08-20T13:20:42.603Z,24.75
2022-08-20T13:23:45.598Z,24.69
2022-08-20T13:26:49.979Z,24.65
2022-08-20T13:29:58.544Z,24.60
2022-08-20T13:33:02.259Z,24.56
2022-08-20T13:36:05.857Z,24.51
2022-08-20T13:39:08.922Z,24.43
2022-08-20T13:42:13.457Z,24.38
2022-08-20T13:45:16.425Z,24.33
2022-08-20T13:48:19.367Z,24.28
2022-08-20T13:51:22.295Z,24.24
2022-08-20T13:54:30.246Z,24.20
2022-08-20T13:57:34.237Z,24.14
2022-08-20T14:00:37.261Z,24.10
2022-08-20T14:03:40.289Z,24.07
2022-08-20T14:06:45.745Z,24.05
2022-08-20T14:09:55.425Z,24.02
2022-08-20T14:12:59.447Z,24.00
2022-08-20T14:16:02.355Z,23.98
2022-08-20T14:19:05.966Z,23.94
2022-08-20T14:22:08.990Z,23.92
2022-08-20T14:25:14.266Z,23.89
2022-08-20T14:28:20.435Z,23.84
2022-08-20T14:31:23.300Z,23.80
2022-08-20T14:34:26.246Z,23.76
2022-08-20T14:37:34.836Z,23.72
2022-08-20T14:40:37.835Z,23.68
2022-08-20T14:43:40.788Z,23.64
2022-08-20T14:46:43.726Z,23.61
2022-08-20T14:49:48.179Z,23.59
2022-08-20T14:52:51.624Z,23.57
2022-08-20T14:55:54.555Z,23.55
2022-08-20T14:58:57.395Z,23.53
2022-08-20T15:02:00.801Z,23.52
2022-08-20T15:05:06.951Z,23.52
2022-08-20T15:08:11.037Z,23.50
2022-08-20T15:11:14.435Z,23.49
2022-08-20T15:14:18.535Z,23.49
2022-08-20T15:17:27.082Z,23.49
2022-08-20T15:20:32.421Z,23.48
2022-08-20T15:23:35.334Z,23.47
2022-08-20T15:26:38.377Z,23.46
2022-08-20T15:29:41.972Z,23.44
2022-08-20T15:32:45.226Z,23.43
2022-08-20T15:35:48.147Z,23.42
2022-08-20T15:38:51.214Z,23.40
2022-08-20T15:41:54.096Z,23.38
2022-08-20T15:44:57.583Z,23.36
2022-08-20T15:48:19.281Z,23.33
2022-08-20T15:51:33.197Z,23.31
2022-08-20T15:54:36.681Z,23.29
2022-08-20T15:57:53.085Z,23.27
2022-08-20T16:01:24.536Z,23.25
2022-08-20T16:04:56.968Z,23.23
2022-08-20T16:08:18.112Z,23.21
2022-08-20T16:11:33.315Z,23.19
2022-08-20T16:14:45.258Z,23.16
2022-08-20T16:17:58.268Z,23.15
2022-08-20T16:21:06.013Z,23.13
2022-08-20T16:24:12.866Z,23.11
2022-08-20T16:27:33.080Z,23.08
2022-08-20T16:30:39.079Z,23.06
2022-08-20T16:33:51.102Z,23.03
2022-08-20T16:37:04.279Z,23.02
2022-08-20T16:40:30.052Z,22.99
2022-08-20T16:43:40.136Z,22.98
2022-08-20T16:46:52.118Z,22.96
2022-08-20T16:50:20.477Z,22.97
2022-08-20T16:53:25.680Z,22.96
2022-08-20T16:56:37.934Z,22.96
2022-08-20T17:00:05.615Z,22.95
2022-08-20T17:03:31.734Z,22.95
2022-08-20T17:06:47.084Z,22.91
2022-08-20T17:09:50.345Z,22.91
2022-08-20T17:13:00.056Z,22.90
2022-08-20T17:16:17.151Z,22.89
2022-08-20T17:19:30.615Z,22.88
2022-08-20T17:22:42.661Z,22.88
2022-08-20T17:25:56.463Z,22.86
2022-08-20T17:29:03.040Z,22.86
2022-08-20T17:32:16.762Z,22.84
2022-08-20T17:35:28.993Z,22.83
2022-08-20T17:38:41.341Z,22.81
2022-08-20T17:41:49.122Z,22.80
2022-08-20T17:45:04.411Z,22.79
2022-08-20T17:48:13.733Z,22.78
2022-08-20T17:51:19.852Z,22.75
2022-08-20T17:54:41.521Z,22.75
2022-08-20T17:57:48.065Z,22.74
2022-08-20T18:00:51.117Z,22.71
2022-08-20T18:03:54.627Z,22.70
2022-08-20T18:07:17.137Z,22.68
2022-08-20T18:10:26.861Z,22.68
2022-08-20T18:13:44.855Z,22.66
2022-08-20T18:17:30.087Z,22.65
2022-08-20T18:20:54.478Z,22.64
2022-08-20T18:24:14.942Z,22.63
2022-08-20T18:27:22.508Z,22.64
2022-08-20T18:30:26.864Z,22.64
2022-08-20T18:33:40.882Z,22.64
2022-08-20T18:37:00.545Z,22.63
2022-08-20T18:40:14.496Z,22.63
2022-08-20T18:43:27.914Z,22.62
2022-08-20T18:46:31.465Z,22.62
2022-08-20T18:49:37.806Z,22.61
2022-08-20T18:52:46.830Z,22.61
2022-08-20T18:56:11.094Z,22.62
2022-08-20T18:59:18.981Z,22.64
2022-08-20T19:02:32.475Z,22.66
2022-08-20T19:06:06.044Z,22.69
2022-08-20T19:09:38.447Z,22.70
2022-08-20T19:12:41.242Z,22.70
2022-08-20T19:15:55.265Z,22.69
2022-08-20T19:18:58.558Z,22.70
2022-08-20T19:22:02.662Z,22.70
2022-08-20T19:25:06.639Z,22.71
2022-08-20T19:28:40.018Z,22.72
2022-08-20T19:31:43.459Z,22.71
2022-08-20T19:35:17.113Z,22.67
2022-08-20T19:38:21.502Z,22.66
2022-08-20T19:41:31.277Z,22.65
2022-08-20T19:44:42.212Z,22.65
2022-08-20T19:47:57.008Z,22.64
2022-08-20T19:51:20.477Z,22.62
2022-08-20T19:54:27.734Z,22.61
2022-08-20T19:57:30.850Z,22.58
2022-08-20T20:00:47.748Z,22.57
2022-08-20T20:03:57.840Z,22.54
2022-08-20T20:07:00.893Z,22.52
2022-08-20T20:10:07.605Z,22.52
2022-08-20T20:13:18.164Z,22.52
2022-08-20T20:16:21.858Z,22.56
2022-08-20T20:19:27.562Z,22.56
2022-08-20T20:22:53.819Z,22.56
2022-08-20T20:26:01.791Z,22.53
2022-08-20T20:29:13.851Z,22.51
2022-08-20T20:32:21.836Z,22.49
2022-08-20T20:35:32.416Z,22.47
2022-08-20T20:38:39.082Z,22.45
2022-08-20T20:41:52.419Z,22.45
2022-08-20T20:44:58.555Z,22.42
2022-08-20T20:48:20.486Z,22.41
2022-08-20T20:51:23.554Z,22.39
2022-08-20T20:54:34.668Z,22.36
2022-08-20T20:57:40.622Z,22.35
2022-08-20T21:00:44.118Z,22.36
2022-08-20T21:03:47.313Z,22.38
2022-08-20T21:06:52.462Z,22.38
2022-08-20T21:09:56.540Z,22.39
2022-08-20T21:12:59.975Z,22.38
2022-08-20T21:16:03.248Z,22.36
2022-08-20T21:19:07.418Z,22.38
2022-08-20T21:22:10.348Z,22.41
2022-08-20T21:25:13.499Z,22.43
2022-08-20T21:28:17.112Z,22.44
2022-08-20T21:31:20.009Z,22.43
2022-08-20T21:34:22.886Z,22.41
2022-08-20T21:37:25.828Z,22.40
2022-08-20T21:40:28.744Z,22.40
2022-08-20T21:43:32.754Z,22.41
2022-08-20T21:46:35.995Z,22.40
2022-08-20T21:49:38.941Z,22.37
2022-08-20T21:52:42.288Z,22.35
2022-08-20T21:55:57.103Z,22.31
2022-08-20T21:59:01.183Z,22.30
2022-08-20T22:02:04.573Z,22.29
2022-08-20T22:05:07.859Z,22.26
2022-08-20T22:08:11.117Z,22.25
2022-08-20T22:11:14.488Z,22.24
2022-08-20T22:14:18.409Z,22.24
2022-08-20T22:17:21.709Z,22.23
2022-08-20T22:20:25.027Z,22.22
2022-08-20T22:23:28.530Z,22.25
2022-08-20T22:26:34.847Z,22.29
2022-08-20T22:29:38.247Z,22.32
2022-08-20T22:32:51.981Z,22.33
2022-08-20T22:35:57.600Z,22.36
2022-08-20T22:39:00.537Z,22.39
2022-08-20T22:42:03.804Z,22.40
2022-08-20T22:45:12.321Z,22.38
2022-08-20T22:48:19.613Z,22.35
2022-08-20T22:51:34.927Z,22.31
2022-08-20T22:54:38.517Z,22.29
2022-08-20T22:57:47.829Z,22.25
2022-08-20T23:00:51.378Z,22.22
2022-08-20T23:04:02.969Z,22.19
2022-08-20T23:07:10.015Z,22.18
2022-08-20T23:10:15.920Z,22.19
2022-08-20T23:13:18.847Z,22.20
2022-08-20T23:16:21.736Z,22.21
2022-08-20T23:19:24.631Z,22.23
2022-08-20T23:22:27.562Z,22.24
2022-08-20T23:25:30.794Z,22.27
2022-08-20T23:28:33.834Z,22.28
2022-08-20T23:31:36.697Z,22.31
2022-08-20T23:34:40.139Z,22.33
2022-08-20T23:37:54.961Z,22.34
2022-08-20T23:40:57.838Z,22.35
2022-08-20T23:44:00.914Z,22.32
2022-08-20T23:47:04.320Z,22.31
2022-08-20T23:50:11.362Z,22.31
2022-08-20T23:53:14.343Z,22.30
2022-08-20T23:56:17.471Z,22.28
2022-08-20T23:59:20.409Z,22.26
